»·PEaware :: N313NJ KEMT-KSBA

N313NJ :: KEMT-KSBA

FLIGHT INFORMATION

Flight Status: Arrived
Operator: Privately registered:
United States
More flights under this callsign
Pilot: Tyler J. (19619)
Aircraft: PIPER PA-46-500TP MALIBU MERIDIAN
(P46T)
More flights by this aircraft type
Origin: KEMT El Monte
United States
Destination: KSBA Santa Barbara Mun
United States
More flights between these airports :: More routes between these airports
Route: PDZ V197 POM V264 ITSME V186 DEANO V27 KWANG
File this flight plan on PilotEdge
Remarks: TEC route ONTP17
Altitude:
(Current/Filed)
8,000ft
Speed:
(Current/Filed)
250kts
Departed: 06-Apr-19 09:05 PM
Arrived: 06-Apr-19 09:41 PM
Distance/Time
Traveled:
92nm/0:36
Distance/Time
To Go:
Arrived

Flight Plot

Page will automatically refresh every two minutes.

Flight plan parsing failed; only flown route is shown


Map Options




Map Legend


Flown Route
Filed Route
Departure Airport
Arrival Airport
Navaid (VOR, NDB)
Fix

Horizontal Profiles

Position Reports

Time Latitude Longitude Heading Altitude Ground
Speed
06-Apr-19 20:51 34.085038 -118.032977 115 300ft 0kts
06-Apr-19 20:52 34.085038 -118.032977 115 300ft 0kts
06-Apr-19 20:52 34.085038 -118.032977 115 300ft 0kts
06-Apr-19 20:54 34.085038 -118.032977 115 300ft 0kts
06-Apr-19 20:55 34.085038 -118.032977 115 300ft 0kts
06-Apr-19 20:55 34.085038 -118.032977 115 300ft 0kts
06-Apr-19 20:56 34.085038 -118.032977 115 300ft 0kts
06-Apr-19 20:58 34.085038 -118.032976 115 300ft 0kts
06-Apr-19 20:58 34.085037 -118.032975 115 300ft 0kts
06-Apr-19 20:59 34.085033 -118.032936 83 300ft 2kts
06-Apr-19 21:00 34.086078 -118.033985 355 300ft 9kts
06-Apr-19 21:01 34.090464 -118.031539 347 300ft 5kts
06-Apr-19 21:02 34.090506 -118.031599 283 300ft 0kts
06-Apr-19 21:03 34.090550 -118.032256 204 300ft 0kts
06-Apr-19 21:04 34.072057 -118.042537 204 750ft 136kts
06-Apr-19 21:05 34.033894 -118.063373 204 1486ft 129kts
06-Apr-19 21:06 34.006470 -118.092770 264 2460ft 165kts
06-Apr-19 21:07 34.006475 -118.151720 278 3570ft 184kts
06-Apr-19 21:08 34.034023 -118.204512 306 4690ft 187kts
06-Apr-19 21:09 34.065339 -118.255153 307 5788ft 189kts
06-Apr-19 21:10 34.096903 -118.306333 306 6886ft 191kts
06-Apr-19 21:11 34.128306 -118.359037 306 7875ft 200kts
06-Apr-19 21:12 34.160665 -118.415086 306 7978ft 204kts
06-Apr-19 21:13 34.193005 -118.471352 306 7977ft 205kts
06-Apr-19 21:14 34.220692 -118.531954 295 7977ft 206kts
06-Apr-19 21:15 34.245614 -118.594276 297 7977ft 206kts
06-Apr-19 21:16 34.269748 -118.655997 296 7976ft 199kts
06-Apr-19 21:17 34.292789 -118.715959 297 7976ft 193kts
06-Apr-19 21:18 34.315552 -118.774618 297 7977ft 192kts
06-Apr-19 21:19 34.338085 -118.833048 297 7978ft 191kts
06-Apr-19 21:20 34.353282 -118.893659 267 7983ft 193kts
06-Apr-19 21:21 34.349347 -118.958531 272 7978ft 192kts
06-Apr-19 21:22 34.352344 -119.022412 266 7979ft 193kts
06-Apr-19 21:23 34.350843 -119.087822 269 7979ft 195kts
06-Apr-19 21:24 34.348931 -119.153640 267 7979ft 196kts
06-Apr-19 21:25 34.346862 -119.219591 268 7979ft 196kts
06-Apr-19 21:26 34.345106 -119.285748 268 7979ft 197kts
06-Apr-19 21:27 34.343726 -119.352532 266 7355ft 191kts
06-Apr-19 21:28 34.341534 -119.415271 266 6353ft 184kts
06-Apr-19 21:29 34.338936 -119.475462 265 5623ft 180kts
06-Apr-19 21:30 34.336079 -119.536712 265 4527ft 182kts
06-Apr-19 21:31 34.342112 -119.593924 292 3933ft 167kts
06-Apr-19 21:32 34.361344 -119.646585 292 3084ft 170kts
06-Apr-19 21:33 34.379201 -119.698516 290 2059ft 162kts
06-Apr-19 21:34 34.392629 -119.747587 280 1971ft 163kts
06-Apr-19 21:35 34.391166 -119.804126 259 2042ft 164kts
06-Apr-19 21:36 34.388013 -119.854821 271 1854ft 143kts
06-Apr-19 21:37 34.396686 -119.888192 326 1566ft 100kts
06-Apr-19 21:38 34.424054 -119.886599 47 683ft 100kts
06-Apr-19 21:39 34.427462 -119.855882 90 100ft 93kts
06-Apr-19 21:40 34.428414 -119.838082 344 14ft 15kts
06-Apr-19 21:41 34.431774 -119.836507 71 14ft 13kts

Navigation Log

Ident Type
Flight plan parsing failed, navigation log unavailable